Time;durP1;ratioP1;P1;durP2;ratioP2;P2;SDS_P1;SDS_P2;PMS_P1;PMS_P2;Temp;Humidity;BMP_temperature;BMP_pressure;BME280_temperature;BME280_humidity;BME280_pressure;Samples;Min_cycle;Max_cycle;Signal;HPM_P1;HPM_P2
2023/07/25 00:01:37;;;;;;;10.40;4.80;;;;;;;26.48;63.62;100982.95;107133;1269;25523;-50
2023/07/25 00:04:04;;;;;;;7.90;4.00;;;;;;;26.46;63.69;100978.10;107140;1266;25363;-50
2023/07/25 00:06:31;;;;;;;7.80;4.20;;;;;;;26.45;63.68;100981.25;106747;1271;25484;-50
2023/07/25 00:08:58;;;;;;;9.90;4.60;;;;;;;26.44;63.88;100978.14;106839;1267;25343;-50
2023/07/25 00:11:25;;;;;;;9.00;4.80;;;;;;;26.42;64.11;100978.46;106984;1262;25485;-50
2023/07/25 00:13:52;;;;;;;10.50;4.50;;;;;;;26.40;64.34;100979.14;107222;1263;22627;-50
2023/07/25 00:16:19;;;;;;;6.70;4.10;;;;;;;26.39;64.51;100975.36;107031;1267;25353;-50
2023/07/25 00:18:46;;;;;;;8.10;3.90;;;;;;;26.37;64.57;100978.31;107045;1259;25410;-50
2023/07/25 00:21:13;;;;;;;8.20;4.80;;;;;;;26.36;64.73;100979.27;107111;1268;25353;-50
2023/07/25 00:23:40;;;;;;;10.90;5.20;;;;;;;26.34;64.78;100978.21;107051;1273;25456;-50
2023/07/25 00:26:07;;;;;;;10.10;4.60;;;;;;;26.33;64.93;100975.29;106966;1270;25539;-50
2023/07/25 00:28:35;;;;;;;9.50;4.70;;;;;;;26.32;65.08;100974.47;107095;1263;25344;-51
2023/07/25 00:31:06;;;;;;;9.40;4.30;;;;;;;26.30;65.04;100975.54;107086;1270;25392;-51
2023/07/25 00:33:34;;;;;;;8.70;4.70;;;;;;;26.29;65.12;100976.04;107081;1265;25325;-51
2023/07/25 00:36:01;;;;;;;11.70;5.10;;;;;;;26.27;65.07;100980.80;106747;1267;25577;-50
2023/07/25 00:38:29;;;;;;;10.70;4.70;;;;;;;26.25;65.13;100979.52;106423;1274;25338;-50
2023/07/25 00:40:55;;;;;;;11.20;5.60;;;;;;;26.23;65.18;100984.51;107049;1266;25409;-51
2023/07/25 00:43:23;;;;;;;8.50;4.50;;;;;;;26.21;65.23;100980.23;106732;1275;25325;-51
2023/07/25 00:45:49;;;;;;;9.90;4.70;;;;;;;26.20;65.36;100983.15;107063;1260;22625;-50
2023/07/25 00:48:17;;;;;;;8.60;4.70;;;;;;;26.18;65.58;100985.27;106923;1267;25372;-50
2023/07/25 00:50:44;;;;;;;9.60;5.10;;;;;;;26.18;65.73;100986.57;107136;1267;22536;-51
2023/07/25 00:53:12;;;;;;;9.60;5.10;;;;;;;26.18;65.92;100992.26;107036;1267;23163;-51
2023/07/25 00:55:39;;;;;;;11.30;5.00;;;;;;;26.17;66.10;100994.24;106735;1275;25328;-51
2023/07/25 00:58:06;;;;;;;12.20;5.30;;;;;;;26.18;66.27;100992.41;106685;1275;25315;-51
2023/07/25 01:00:33;;;;;;;13.00;4.90;;;;;;;26.18;66.49;100994.00;106992;1267;22534;-51
2023/07/25 01:03:00;;;;;;;10.60;5.00;;;;;;;26.18;66.60;100988.11;106822;1260;24354;-50
2023/07/25 01:05:27;;;;;;;10.90;5.50;;;;;;;26.18;66.67;100983.84;106493;1267;25356;-50
2023/07/25 01:07:54;;;;;;;10.50;5.80;;;;;;;26.20;66.73;100980.71;106684;1259;22657;-51
2023/07/25 01:10:22;;;;;;;9.20;4.40;;;;;;;26.19;66.82;100980.18;107146;1269;23260;-51
2023/07/25 01:12:49;;;;;;;10.90;5.40;;;;;;;26.20;66.82;100984.59;107191;1271;25353;-50
2023/07/25 01:15:16;;;;;;;11.00;5.10;;;;;;;26.20;66.86;100981.53;106861;1271;25556;-49
2023/07/25 01:17:43;;;;;;;9.30;4.90;;;;;;;26.22;66.78;100981.92;106838;1266;25353;-50
2023/07/25 01:20:10;;;;;;;10.10;5.40;;;;;;;26.22;66.80;100981.02;106817;1267;25353;-50
2023/07/25 01:22:37;;;;;;;9.80;4.80;;;;;;;26.24;66.51;100980.67;107190;1261;25261;-50
2023/07/25 01:25:06;;;;;;;9.40;5.00;;;;;;;26.23;66.40;100979.15;106835;1267;25353;-50
2023/07/25 01:27:33;;;;;;;9.50;5.10;;;;;;;26.22;66.14;100977.62;106800;1268;22582;-50
2023/07/25 01:30:03;;;;;;;8.50;4.30;;;;;;;26.21;66.12;100979.52;107051;1273;23268;-51
2023/07/25 01:32:30;;;;;;;8.60;5.40;;;;;;;26.19;66.19;100978.44;107091;1257;25353;-50
2023/07/25 01:34:58;;;;;;;12.30;5.10;;;;;;;26.18;66.20;100981.05;107090;1263;25345;-50
2023/07/25 01:37:25;;;;;;;6.50;4.50;;;;;;;26.15;66.31;100986.95;107176;1262;25400;-50
2023/07/25 01:39:52;;;;;;;7.80;4.90;;;;;;;26.13;66.53;100992.30;106847;1267;25348;-50
2023/07/25 01:42:19;;;;;;;7.30;4.40;;;;;;;26.11;66.64;100989.60;106873;1254;25363;-49
2023/07/25 01:44:46;;;;;;;6.90;5.00;;;;;;;26.10;66.70;100988.97;106960;1262;25541;-50
2023/07/25 01:47:12;;;;;;;6.30;4.70;;;;;;;26.10;66.79;100985.81;107046;1261;25343;-50
2023/07/25 01:49:40;;;;;;;11.00;5.30;;;;;;;26.09;66.91;100983.34;107032;1267;25353;-49
2023/07/25 01:52:07;;;;;;;10.90;5.40;;;;;;;26.09;67.04;100983.92;106960;1267;23193;-52
2023/07/25 01:54:33;;;;;;;8.40;4.60;;;;;;;26.09;66.88;100983.06;107042;1264;22528;-50
2023/07/25 01:57:03;;;;;;;9.70;4.80;;;;;;;26.08;66.80;100982.20;107065;1268;25430;-50
2023/07/25 01:59:30;;;;;;;7.80;4.90;;;;;;;26.06;66.80;100982.33;106833;1257;25229;-51
2023/07/25 02:01:57;;;;;;;8.80;4.60;;;;;;;26.05;66.75;100985.27;106865;1260;25340;-51
2023/07/25 02:04:24;;;;;;;8.20;5.10;;;;;;;26.05;66.79;100991.19;106885;1273;25333;-51
2023/07/25 02:06:51;;;;;;;8.90;4.90;;;;;;;26.03;66.75;100994.91;106896;1254;22553;-51
2023/07/25 02:09:18;;;;;;;6.70;4.60;;;;;;;26.01;66.98;101000.03;106713;1270;25353;-51
2023/07/25 02:11:45;;;;;;;7.20;5.00;;;;;;;26.00;67.09;101005.61;106889;1267;25343;-51
2023/07/25 02:14:12;;;;;;;8.40;5.20;;;;;;;26.00;67.30;101009.52;106671;1270;25446;-50
2023/07/25 02:16:40;;;;;;;9.60;4.80;;;;;;;26.00;67.42;101014.16;106830;1255;22537;-50
2023/07/25 02:19:07;;;;;;;13.10;5.70;;;;;;;26.00;67.56;101011.88;107002;1257;25446;-51
2023/07/25 02:21:34;;;;;;;13.10;5.80;;;;;;;26.00;67.71;101010.45;106821;1267;25360;-50
2023/07/25 02:24:00;;;;;;;15.90;5.90;;;;;;;26.00;67.69;101009.36;106842;1266;25436;-50
2023/07/25 02:26:27;;;;;;;12.50;5.40;;;;;;;26.00;67.75;101014.35;106783;1264;25278;-50
2023/07/25 02:28:54;;;;;;;12.80;6.00;;;;;;;26.00;67.77;101017.35;106918;1256;25343;-50
2023/07/25 02:31:23;;;;;;;12.20;5.80;;;;;;;26.00;67.68;101018.05;107023;1264;25342;-50
2023/07/25 02:33:51;;;;;;;10.70;5.90;;;;;;;26.01;67.59;101020.80;106767;1270;25478;-50
2023/07/25 02:36:18;;;;;;;14.80;5.50;;;;;;;26.01;67.38;101020.85;107022;1270;25344;-50
2023/07/25 02:38:44;;;;;;;9.50;5.20;;;;;;;25.99;67.46;101024.71;107055;1254;25404;-50
2023/07/25 02:41:11;;;;;;;8.70;4.90;;;;;;;25.98;67.53;101018.04;106866;1267;25323;-50
2023/07/25 02:43:38;;;;;;;8.00;5.50;;;;;;;25.99;67.72;101019.56;107078;1264;25364;-49
2023/07/25 02:46:05;;;;;;;12.10;6.20;;;;;;;25.99;67.83;101017.77;107028;1261;25484;-50
2023/07/25 02:48:32;;;;;;;11.80;6.50;;;;;;;25.99;67.79;101017.80;106975;1270;25352;-50
2023/07/25 02:51:00;;;;;;;12.20;5.50;;;;;;;25.99;67.81;101009.77;106837;1270;22537;-50
2023/07/25 02:53:27;;;;;;;12.70;5.60;;;;;;;26.00;67.77;101004.56;106782;1267;25349;-50
2023/07/25 02:55:54;;;;;;;13.40;5.70;;;;;;;25.99;67.69;100997.70;106925;1270;25347;-50
2023/07/25 02:58:21;;;;;;;14.50;5.70;;;;;;;25.98;67.53;100992.44;107089;1256;25325;-50
2023/07/25 03:00:48;;;;;;;10.70;5.40;;;;;;;25.98;67.35;100986.77;106936;1273;25440;-50
2023/07/25 03:03:15;;;;;;;10.90;5.60;;;;;;;25.97;67.14;100982.56;107097;1263;25315;-49
2023/07/25 03:05:42;;;;;;;12.00;5.60;;;;;;;25.96;67.07;100979.10;107104;1257;25430;-50
2023/07/25 03:08:09;;;;;;;19.50;7.00;;;;;;;25.95;67.07;100974.88;106753;1274;25403;-50
2023/07/25 03:10:37;;;;;;;13.60;5.50;;;;;;;25.94;66.98;100971.23;106958;1253;25351;-50
2023/07/25 03:13:04;;;;;;;11.70;5.60;;;;;;;25.94;66.99;100966.87;106866;1270;25329;-50
2023/07/25 03:15:30;;;;;;;9.80;5.40;;;;;;;25.93;67.07;100974.02;107108;1263;25478;-50
2023/07/25 03:17:58;;;;;;;9.00;4.70;;;;;;;25.92;66.99;100971.05;107038;1267;25312;-50
2023/07/25 03:20:25;;;;;;;8.60;4.80;;;;;;;25.91;66.99;100966.02;106533;1267;25415;-51
2023/07/25 03:22:54;;;;;;;8.50;4.60;;;;;;;25.90;66.90;100970.33;107082;1262;25251;-51
2023/07/25 03:25:21;;;;;;;13.60;5.40;;;;;;;25.89;67.04;100969.54;107176;1264;25464;-49
2023/07/25 03:27:48;;;;;;;9.00;5.10;;;;;;;25.89;67.15;100970.80;107087;1267;25421;-50
2023/07/25 03:30:15;;;;;;;8.40;4.40;;;;;;;25.90;67.17;100970.23;107103;1264;25376;-50
2023/07/25 03:32:42;;;;;;;9.10;4.40;;;;;;;25.90;67.19;100973.58;107039;1264;25523;-50
2023/07/25 03:35:09;;;;;;;7.50;4.70;;;;;;;25.90;67.23;100975.88;107035;1267;25380;-50
2023/07/25 03:37:36;;;;;;;9.80;5.30;;;;;;;25.90;67.49;100971.98;107079;1257;25412;-50
2023/07/25 03:40:05;;;;;;;8.00;5.10;;;;;;;25.91;67.86;100969.58;107009;1257;25317;-51
2023/07/25 03:42:32;;;;;;;5.70;4.00;;;;;;;25.96;68.33;100970.21;106914;1252;22553;-51
2023/07/25 03:44:59;;;;;;;7.70;4.50;;;;;;;26.04;68.63;100967.91;107080;1264;25381;-50
2023/07/25 03:47:26;;;;;;;15.00;5.30;;;;;;;26.14;68.72;100960.55;106781;1254;25472;-50
2023/07/25 03:49:53;;;;;;;14.50;5.20;;;;;;;26.24;68.61;100959.38;107191;1264;25325;-50
2023/07/25 03:52:20;;;;;;;10.80;5.70;;;;;;;26.34;68.30;100957.73;106919;1267;25394;-50
2023/07/25 03:54:47;;;;;;;10.40;4.70;;;;;;;26.47;67.89;100954.17;107016;1270;25324;-50
2023/07/25 03:57:14;;;;;;;7.20;4.80;;;;;;;26.66;67.23;100951.97;107150;1259;25904;-50
2023/07/25 03:59:41;;;;;;;9.80;4.90;;;;;;;26.86;66.65;100951.52;106885;1257;25438;-50
2023/07/25 04:02:09;;;;;;;9.20;4.70;;;;;;;27.10;66.34;100954.59;106857;1267;25328;-50
2023/07/25 04:04:39;;;;;;;11.10;5.10;;;;;;;27.38;65.28;100953.54;106909;1260;25788;-50
2023/07/25 04:07:09;;;;;;;8.20;4.30;;;;;;;27.57;63.87;100951.13;106774;1267;25353;-51
2023/07/25 04:09:36;;;;;;;9.10;5.00;;;;;;;27.65;63.11;100951.48;107150;1263;25485;-50
2023/07/25 04:12:03;;;;;;;10.20;4.70;;;;;;;27.65;62.85;100950.71;106775;1267;25353;-52
2023/07/25 04:14:30;;;;;;;12.90;4.70;;;;;;;27.62;62.90;100950.99;106849;1267;22521;-50
2023/07/25 04:16:57;;;;;;;9.50;4.80;;;;;;;27.57;63.11;100953.46;106747;1267;25373;-52
2023/07/25 04:19:24;;;;;;;9.50;4.40;;;;;;;27.51;63.25;100961.49;106703;1261;25394;-51
2023/07/25 04:21:51;;;;;;;10.20;5.00;;;;;;;27.45;63.40;100966.81;107118;1263;25344;-50
2023/07/25 04:24:18;;;;;;;9.10;4.60;;;;;;;27.39;63.54;100965.91;106716;1267;25391;-51
2023/07/25 04:26:45;;;;;;;11.30;5.30;;;;;;;27.35;63.57;100960.52;107031;1260;25343;-50
2023/07/25 04:29:12;;;;;;;5.90;4.30;;;;;;;27.29;63.77;100951.75;106797;1267;22649;-50
2023/07/25 04:31:39;;;;;;;8.90;4.50;;;;;;;27.25;63.74;100945.90;106813;1264;25404;-51
2023/07/25 04:34:06;;;;;;;8.20;4.70;;;;;;;27.20;63.76;100942.27;107144;1264;25338;-50
2023/07/25 04:36:36;;;;;;;7.80;4.90;;;;;;;27.16;63.90;100943.90;107056;1264;25401;-50
2023/07/25 04:39:03;;;;;;;10.40;5.20;;;;;;;27.13;63.99;100944.31;107019;1260;22621;-51
2023/07/25 04:41:30;;;;;;;6.10;4.60;;;;;;;27.10;64.21;100948.85;106845;1265;22537;-50
2023/07/25 04:43:57;;;;;;;8.90;5.00;;;;;;;27.08;64.40;100955.60;107143;1260;25321;-50
2023/07/25 04:46:24;;;;;;;8.30;4.70;;;;;;;27.07;64.58;100955.34;106836;1272;25473;-51
2023/07/25 04:48:51;;;;;;;13.10;4.90;;;;;;;27.05;64.74;100952.85;106684;1271;24341;-50
2023/07/25 04:51:18;;;;;;;9.70;5.40;;;;;;;27.04;64.95;100951.21;106903;1267;25360;-51
2023/07/25 04:53:45;;;;;;;8.00;5.30;;;;;;;27.01;65.11;100953.55;106649;1263;25462;-50
2023/07/25 04:56:12;;;;;;;9.50;4.80;;;;;;;26.99;65.35;100948.02;106558;1269;25342;-50
2023/07/25 04:58:41;;;;;;;10.60;5.00;;;;;;;26.98;65.42;100947.61;106684;1267;25471;-50
2023/07/25 05:01:09;;;;;;;7.30;4.80;;;;;;;26.96;65.47;100944.93;107066;1264;25348;-51
2023/07/25 05:03:36;;;;;;;7.60;4.90;;;;;;;26.97;65.71;100949.53;107139;1264;23326;-50
2023/07/25 05:06:03;;;;;;;11.90;5.40;;;;;;;26.98;65.87;100947.84;107123;1251;25328;-50
2023/07/25 05:08:30;;;;;;;10.70;5.90;;;;;;;26.98;65.96;100943.13;107030;1267;25312;-51
2023/07/25 05:10:57;;;;;;;10.70;5.20;;;;;;;26.99;65.95;100943.77;107136;1257;25325;-51
2023/07/25 05:13:24;;;;;;;9.10;5.00;;;;;;;27.01;66.00;100949.33;107089;1253;25348;-50
2023/07/25 05:15:51;;;;;;;11.60;5.10;;;;;;;27.03;65.93;100952.51;107105;1257;25345;-51
2023/07/25 05:18:18;;;;;;;9.60;5.40;;;;;;;27.07;66.11;100955.93;107095;1257;25336;-51
2023/07/25 05:20:45;;;;;;;11.00;5.10;;;;;;;27.14;66.04;100954.55;107040;1256;25404;-50
2023/07/25 05:23:12;;;;;;;12.50;5.80;;;;;;;27.26;65.87;100960.11;106928;1267;25506;-51
2023/07/25 05:25:38;;;;;;;9.20;5.40;;;;;;;27.40;65.53;100962.10;106804;1270;25384;-51
2023/07/25 05:28:05;;;;;;;8.30;5.30;;;;;;;27.55;65.18;100962.55;106819;1267;25402;-51
2023/07/25 05:30:33;;;;;;;9.40;5.80;;;;;;;27.69;64.75;100962.16;106709;1269;25403;-49
2023/07/25 05:33:00;;;;;;;9.40;5.80;;;;;;;27.82;64.23;100960.95;106845;1269;25407;-50
2023/07/25 05:35:27;;;;;;;12.90;5.20;;;;;;;27.96;63.80;100958.75;107123;1255;25364;-49
2023/07/25 05:37:54;;;;;;;8.10;4.70;;;;;;;28.13;63.39;100963.14;107050;1261;25443;-50
2023/07/25 05:40:21;;;;;;;9.70;5.50;;;;;;;28.30;62.87;100966.91;107184;1257;25470;-49
2023/07/25 05:42:48;;;;;;;10.90;4.90;;;;;;;28.45;62.40;100962.60;107087;1263;25421;-50
2023/07/25 05:45:18;;;;;;;7.20;4.70;;;;;;;28.61;61.82;100963.06;107020;1263;23766;-50
2023/07/25 05:47:44;;;;;;;9.70;4.70;;;;;;;28.74;61.19;100959.00;107083;1260;25404;-49
2023/07/25 05:50:11;;;;;;;9.40;4.60;;;;;;;28.86;60.78;100954.63;106857;1265;25328;-51
2023/07/25 05:52:39;;;;;;;9.20;5.00;;;;;;;28.99;60.50;100950.83;106882;1267;25335;-51
2023/07/25 05:55:06;;;;;;;13.40;5.30;;;;;;;29.14;60.08;100946.23;107089;1267;25416;-50
2023/07/25 05:57:33;;;;;;;7.80;4.40;;;;;;;29.30;59.72;100941.45;106766;1264;25328;-50
2023/07/25 06:00:00;;;;;;;7.00;4.80;;;;;;;29.47;59.75;100940.52;107263;1264;25340;-50
2023/07/25 06:02:27;;;;;;;8.70;4.70;;;;;;;29.63;59.22;100939.27;107049;1267;25321;-50
2023/07/25 06:04:54;;;;;;;8.60;4.80;;;;;;;29.77;58.65;100938.95;106930;1265;22530;-50
2023/07/25 06:07:21;;;;;;;11.70;5.50;;;;;;;29.89;58.01;100935.81;107102;1270;25463;-50
2023/07/25 06:09:50;;;;;;;14.60;5.30;;;;;;;29.96;57.81;100935.23;107092;1260;22554;-50
2023/07/25 06:12:17;;;;;;;8.80;5.30;;;;;;;30.02;57.50;100936.25;107017;1260;24263;-50
2023/07/25 06:14:45;;;;;;;8.00;4.80;;;;;;;30.05;57.19;100937.55;107134;1260;25405;-50
2023/07/25 06:17:12;;;;;;;9.80;4.90;;;;;;;30.05;57.19;100936.87;106802;1267;24243;-50
2023/07/25 06:19:39;;;;;;;8.90;4.80;;;;;;;30.01;57.05;100940.80;106955;1267;25353;-51
2023/07/25 06:22:05;;;;;;;9.00;4.70;;;;;;;29.97;57.24;100937.08;107040;1252;25232;-51
2023/07/25 06:24:33;;;;;;;7.50;4.50;;;;;;;29.93;57.20;100935.36;106655;1268;22537;-50
2023/07/25 06:27:00;;;;;;;10.60;5.20;;;;;;;29.87;57.30;100935.10;106861;1267;25373;-50
2023/07/25 06:29:26;;;;;;;8.30;5.30;;;;;;;29.84;57.50;100930.23;107020;1260;24250;-50
2023/07/25 06:31:54;;;;;;;7.70;4.60;;;;;;;29.79;57.51;100927.63;107042;1263;25342;-50
2023/07/25 06:34:21;;;;;;;9.00;5.20;;;;;;;29.74;57.53;100924.77;107120;1263;25415;-50
2023/07/25 06:36:48;;;;;;;7.60;4.30;;;;;;;29.71;57.76;100921.11;106772;1275;25360;-50
2023/07/25 06:39:15;;;;;;;10.60;4.90;;;;;;;29.69;57.85;100918.25;106877;1267;25351;-49
2023/07/25 06:41:43;;;;;;;7.30;5.00;;;;;;;29.69;58.25;100913.83;107051;1267;25353;-50
2023/07/25 06:44:15;;;;;;;11.40;5.10;;;;;;;29.68;58.35;100915.98;106902;1262;25310;-50
2023/07/25 06:46:42;;;;;;;11.00;4.90;;;;;;;29.69;58.27;100915.77;106920;1257;25373;-50
2023/07/25 06:49:09;;;;;;;7.80;5.50;;;;;;;29.69;58.60;100922.70;107109;1264;25446;-50
2023/07/25 06:51:36;;;;;;;11.50;5.30;;;;;;;29.71;58.41;100920.40;107180;1263;25360;-50
2023/07/25 06:54:03;;;;;;;11.50;5.30;;;;;;;29.72;58.39;100918.89;107080;1262;25340;-50
2023/07/25 06:56:30;;;;;;;8.60;5.00;;;;;;;29.73;58.44;100920.54;107187;1265;25420;-49
2023/07/25 06:58:57;;;;;;;10.60;5.30;;;;;;;29.79;58.34;100923.04;107059;1267;25363;-50
2023/07/25 07:01:27;;;;;;;8.50;5.00;;;;;;;29.82;58.27;100923.58;107079;1262;25343;-50
2023/07/25 07:03:55;;;;;;;8.20;4.60;;;;;;;29.86;58.26;100923.96;107050;1261;25335;-50
2023/07/25 07:06:22;;;;;;;9.90;5.20;;;;;;;29.90;58.16;100929.44;107140;1255;25431;-50
2023/07/25 07:08:49;;;;;;;10.20;4.60;;;;;;;29.97;58.38;100926.88;107179;1264;23356;-50
2023/07/25 07:11:15;;;;;;;11.70;5.30;;;;;;;30.10;58.08;100925.42;107015;1262;22634;-50
2023/07/25 07:13:42;;;;;;;8.90;4.50;;;;;;;30.24;57.74;100925.35;106983;1268;25341;-50
2023/07/25 07:16:09;;;;;;;10.40;4.70;;;;;;;30.43;57.32;100923.42;107089;1264;25373;-51
2023/07/25 07:18:36;;;;;;;13.70;5.10;;;;;;;30.63;56.79;100920.19;107107;1257;25328;-50
2023/07/25 07:21:03;;;;;;;8.30;5.10;;;;;;;30.83;56.19;100917.24;107117;1264;25353;-51
2023/07/25 07:23:30;;;;;;;10.20;5.00;;;;;;;31.03;55.52;100912.35;106824;1267;25510;-50
2023/07/25 07:25:57;;;;;;;10.90;5.20;;;;;;;31.22;54.83;100908.89;107098;1264;25338;-50
2023/07/25 07:28:24;;;;;;;10.60;4.60;;;;;;;31.36;54.35;100911.13;107080;1259;25395;-50
2023/07/25 07:30:53;;;;;;;9.70;4.80;;;;;;;31.45;53.98;100913.77;106969;1260;25378;-50
2023/07/25 07:33:20;;;;;;;10.60;5.40;;;;;;;31.50;53.71;100916.90;107121;1264;25547;-51
2023/07/25 07:35:46;;;;;;;7.10;4.40;;;;;;;31.51;53.60;100913.91;107060;1263;25287;-50
2023/07/25 07:38:13;;;;;;;7.90;4.70;;;;;;;31.51;52.94;100909.20;106936;1263;25625;-51
2023/07/25 07:40:40;;;;;;;10.40;5.40;;;;;;;31.47;52.40;100903.31;106735;1256;25284;-50
2023/07/25 07:43:07;;;;;;;12.90;5.00;;;;;;;31.40;51.68;100899.65;106931;1257;25360;-51
2023/07/25 07:45:34;;;;;;;12.90;5.00;;;;;;;31.31;52.31;100898.94;106872;1259;25351;-51
2023/07/25 07:48:06;;;;;;;10.10;4.90;;;;;;;31.23;52.74;100892.95;107062;1264;25353;-51
2023/07/25 07:50:33;;;;;;;11.60;5.60;;;;;;;31.14;52.79;100880.32;106846;1260;22540;-50
2023/07/25 07:53:00;;;;;;;12.00;4.90;;;;;;;31.04;52.90;100881.65;106923;1257;25481;-51
2023/07/25 07:55:28;;;;;;;13.00;5.70;;;;;;;30.93;53.07;100876.17;106794;1260;292543;-52
2023/07/25 07:57:55;;;;;;;10.50;4.80;;;;;;;30.84;53.38;100874.13;106836;1256;25310;-52
2023/07/25 08:00:23;;;;;;;9.70;4.70;;;;;;;30.75;53.50;100877.21;106696;1266;23257;-51
2023/07/25 08:02:51;;;;;;;9.10;5.60;;;;;;;30.67;53.78;100875.02;107160;1256;25341;-51
2023/07/25 08:05:18;;;;;;;9.00;4.80;;;;;;;30.60;53.99;100872.80;106868;1257;25342;-50
2023/07/25 08:07:45;;;;;;;8.30;4.80;;;;;;;30.54;54.26;100876.33;106992;1261;25325;-50
2023/07/25 08:10:12;;;;;;;13.40;5.10;;;;;;;30.47;54.30;100875.91;106637;1268;25364;-50
2023/07/25 08:12:40;;;;;;;10.40;4.80;;;;;;;30.43;54.56;100883.73;107236;1263;25481;-50
2023/07/25 08:15:08;;;;;;;9.70;4.80;;;;;;;30.39;54.75;100885.55;107102;1252;22576;-50
2023/07/25 08:17:35;;;;;;;8.30;5.10;;;;;;;30.36;54.64;100886.95;107449;1262;23879;-50
2023/07/25 08:20:04;;;;;;;11.80;5.00;;;;;;;30.33;54.85;100887.96;107267;1263;25393;-51
2023/07/25 08:22:31;;;;;;;10.00;4.80;;;;;;;30.30;54.84;100887.73;107284;1264;22534;-50
2023/07/25 08:24:58;;;;;;;9.60;5.00;;;;;;;30.28;54.98;100892.02;107443;1264;25435;-50
2023/07/25 08:27:25;;;;;;;10.40;4.70;;;;;;;30.26;54.71;100894.55;107355;1256;25472;-50
2023/07/25 08:29:52;;;;;;;9.50;5.40;;;;;;;30.26;54.98;100900.48;107271;1264;25350;-51
2023/07/25 08:32:19;;;;;;;11.00;4.80;;;;;;;30.25;54.90;100902.02;107069;1261;25481;-51
2023/07/25 08:34:46;;;;;;;10.80;5.20;;;;;;;30.24;54.84;100903.16;107141;1257;24253;-50
2023/07/25 08:37:13;;;;;;;9.90;5.00;;;;;;;30.21;54.81;100905.45;107290;1259;25345;-51
2023/07/25 08:39:40;;;;;;;12.30;5.70;;;;;;;30.19;55.05;100905.34;107425;1257;22524;-50
2023/07/25 08:42:07;;;;;;;10.80;4.90;;;;;;;30.15;55.06;100902.83;106924;1270;25345;-50
2023/07/25 08:44:37;;;;;;;8.50;5.00;;;;;;;30.16;55.09;100910.98;107031;1265;23249;-51
2023/07/25 08:47:11;;;;;;;8.30;4.90;;;;;;;30.18;55.25;100912.06;106999;1257;24259;-49
2023/07/25 08:49:38;;;;;;;13.10;5.70;;;;;;;30.20;55.17;100905.55;106984;1263;25407;-51
2023/07/25 08:52:06;;;;;;;9.20;5.10;;;;;;;30.22;54.94;100904.99;106916;1265;25328;-52
2023/07/25 08:54:36;;;;;;;7.90;4.70;;;;;;;30.24;54.91;100909.80;107223;1257;25516;-50
2023/07/25 08:57:04;;;;;;;9.20;4.70;;;;;;;30.27;55.00;100915.26;107346;1259;25335;-50
2023/07/25 08:59:31;;;;;;;12.10;6.00;;;;;;;30.29;55.07;100911.85;107303;1257;25449;-49
2023/07/25 09:01:58;;;;;;;8.20;4.60;;;;;;;30.31;54.81;100916.10;107131;1262;25471;-50
2023/07/25 09:04:26;;;;;;;9.20;4.80;;;;;;;30.35;54.71;100914.63;107472;1252;22531;-49
2023/07/25 09:06:52;;;;;;;9.50;4.90;;;;;;;30.35;54.88;100915.51;107314;1253;25351;-49
2023/07/25 09:09:19;;;;;;;10.30;5.00;;;;;;;30.35;54.84;100916.40;107403;1258;25345;-50
2023/07/25 09:11:46;;;;;;;9.00;5.00;;;;;;;30.36;54.76;100918.32;107210;1267;25391;-50
2023/07/25 09:14:13;;;;;;;11.00;5.60;;;;;;;30.36;54.40;100915.02;106743;1253;25296;-50
2023/07/25 09:16:40;;;;;;;9.90;5.50;;;;;;;30.37;54.64;100915.30;107167;1258;25296;-51
2023/07/25 09:19:07;;;;;;;12.60;5.30;;;;;;;30.39;54.86;100918.72;107470;1260;25328;-49
2023/07/25 09:21:53;;;;;;;10.60;5.40;;;;;;;30.39;54.99;100917.75;107093;1257;25386;-49
2023/07/25 09:24:20;;;;;;;10.20;5.00;;;;;;;30.38;54.63;100916.23;107174;1252;25412;-50
2023/07/25 09:26:55;;;;;;;9.50;4.90;;;;;;;30.38;54.27;100913.77;107166;1263;22656;-50
2023/07/25 09:29:26;;;;;;;10.60;5.00;;;;;;;30.39;53.98;100925.30;107004;1258;25482;-50
2023/07/25 09:31:53;;;;;;;;;;;;;;;30.40;54.12;100929.69;107483;1262;23267;-50
2023/07/25 09:34:23;;;;;;;9.30;4.40;;;;;;;30.40;54.34;100927.55;107675;1254;25325;-50
2023/07/25 09:36:49;;;;;;;11.10;4.90;;;;;;;30.39;54.57;100917.91;107248;1259;25385;-50
2023/07/25 09:39:16;;;;;;;10.80;5.10;;;;;;;30.39;54.61;100904.39;107067;1265;23414;-52
2023/07/25 09:41:45;;;;;;;12.90;4.90;;;;;;;30.39;54.82;100897.40;107096;1259;25360;-50
2023/07/25 09:44:12;;;;;;;9.10;5.40;;;;;;;30.40;54.76;100893.52;107491;1263;22513;-50
2023/07/25 09:46:39;;;;;;;10.60;5.20;;;;;;;30.41;54.57;100899.14;107103;1262;25373;-51
2023/07/25 09:49:05;;;;;;;9.70;5.50;;;;;;;30.42;54.72;100897.29;107275;1263;23024;-50
2023/07/25 09:51:32;;;;;;;11.10;4.90;;;;;;;30.44;54.80;100910.29;107377;1262;25474;-49
2023/07/25 09:53:59;;;;;;;8.90;4.50;;;;;;;30.44;54.87;100902.00;107228;1264;25361;-50
2023/07/25 09:56:26;;;;;;;10.50;5.60;;;;;;;30.46;54.58;100890.60;106917;1258;22767;-50
2023/07/25 09:58:54;;;;;;;11.80;5.20;;;;;;;30.45;54.69;100885.77;107244;1260;25450;-50
2023/07/25 10:01:24;;;;;;;13.90;5.00;;;;;;;30.46;54.46;100880.86;107270;1256;22523;-50
2023/07/25 10:03:51;;;;;;;11.30;4.90;;;;;;;30.47;54.36;100873.42;107238;1258;25481;-50
2023/07/25 10:06:20;;;;;;;9.70;4.70;;;;;;;30.49;54.42;100870.59;107246;1264;25360;-50
2023/07/25 10:08:47;;;;;;;10.40;4.80;;;;;;;30.49;54.52;100857.35;106874;1267;25472;-51
2023/07/25 10:11:32;;;;;;;9.30;5.00;;;;;;;30.49;55.03;100840.11;107162;1268;22638;-50
2023/07/25 10:14:00;;;;;;;12.50;5.60;;;;;;;30.50;54.95;100825.17;107284;1255;22515;-51
2023/07/25 10:16:27;;;;;;;13.00;5.50;;;;;;;30.50;55.02;100828.33;107263;1269;25415;-50
2023/07/25 10:18:57;;;;;;;9.00;5.00;;;;;;;30.52;55.22;100826.70;106660;1267;22521;-50
2023/07/25 10:21:26;;;;;;;14.50;5.40;;;;;;;30.57;55.17;100831.65;106806;1259;22530;-50
2023/07/25 10:24:00;;;;;;;8.40;4.90;;;;;;;30.59;55.28;100824.83;106931;1264;22666;-51
2023/07/25 10:26:27;;;;;;;10.20;5.10;;;;;;;30.60;55.42;100821.80;106905;1253;25497;-51
2023/07/25 10:28:54;;;;;;;10.60;5.70;;;;;;;30.61;55.45;100803.77;106578;1265;22550;-50
2023/07/25 10:31:22;;;;;;;11.70;5.20;;;;;;;30.62;55.35;100793.30;106854;1255;22533;-48
2023/07/25 10:33:54;;;;;;;9.90;5.20;;;;;;;30.63;55.41;100787.46;107038;1251;24201;-47
2023/07/25 10:36:25;;;;;;;11.50;5.30;;;;;;;30.64;55.50;100784.71;107065;1259;22685;-47
2023/07/25 10:39:09;;;;;;;10.40;5.10;;;;;;;30.64;55.42;100777.90;106801;1262;22519;-48
2023/07/25 10:41:36;;;;;;;14.10;5.20;;;;;;;30.64;55.43;100772.33;106958;1257;22671;-48
2023/07/25 10:44:04;;;;;;;11.80;4.90;;;;;;;30.64;55.43;100770.04;107285;1251;25444;-48
2023/07/25 10:46:32;;;;;;;11.60;5.70;;;;;;;30.61;55.16;100750.48;107158;1256;25417;-49
2023/07/25 10:49:01;;;;;;;11.10;5.00;;;;;;;30.54;54.80;100742.58;107055;1262;22553;-48
2023/07/25 10:51:51;;;;;;;12.60;5.80;;;;;;;30.42;54.75;100743.30;107107;1267;25339;-49
2023/07/25 10:54:22;;;;;;;9.40;4.60;;;;;;;30.26;55.11;100742.83;107285;1254;25324;-50
2023/07/25 10:57:23;;;;;;;;;;;;;;;30.13;55.36;100742.48;107425;1257;23723;-49
2023/07/25 10:59:57;;;;;;;12.10;5.30;;;;;;;29.98;55.77;100742.89;106777;1269;22904;-50
2023/07/25 11:02:45;;;;;;;13.20;6.10;;;;;;;29.91;56.37;100734.66;106943;1266;25409;-50
2023/07/25 11:05:12;;;;;;;14.20;5.60;;;;;;;29.90;56.70;100728.76;107077;1262;22563;-52
2023/07/25 11:07:39;;;;;;;13.90;5.80;;;;;;;29.91;56.83;100726.45;106963;1259;24490;-50
2023/07/25 11:10:06;;;;;;;17.30;6.40;;;;;;;29.93;56.73;100719.48;106762;1265;23524;-51
2023/07/25 11:12:33;;;;;;;14.20;5.60;;;;;;;29.97;56.67;100711.35;106518;1272;23152;-51
2023/07/25 11:15:00;;;;;;;10.90;5.20;;;;;;;30.01;56.54;100700.77;106535;1264;25387;-48
2023/07/25 11:17:28;;;;;;;14.30;6.30;;;;;;;30.06;56.47;100703.42;106700;1264;25509;-48